createdAt,value
2018-12-15T00:02:25.711Z,-0.50
2018-12-15T00:04:55.366Z,-0.50
2018-12-15T00:07:25.315Z,-0.50
2018-12-15T00:09:55.056Z,-0.50
2018-12-15T00:12:24.222Z,-0.50
2018-12-15T00:14:53.392Z,-0.50
2018-12-15T00:17:22.262Z,-0.50
2018-12-15T00:19:51.817Z,-0.50
2018-12-15T00:22:21.186Z,-0.50
2018-12-15T00:24:52.952Z,-0.50
2018-12-15T00:27:21.734Z,-0.50
2018-12-15T00:29:51.109Z,-0.50
2018-12-15T00:32:19.909Z,-0.60
2018-12-15T00:34:48.772Z,-0.50
2018-12-15T00:37:17.548Z,-0.60
2018-12-15T00:39:46.440Z,-0.60
2018-12-15T00:42:14.788Z,-0.50
2018-12-15T00:44:43.611Z,-0.50
2018-12-15T00:47:13.940Z,-0.50
2018-12-15T00:49:43.076Z,-0.50
2018-12-15T00:52:11.856Z,-0.50
2018-12-15T00:54:41.177Z,-0.50
2018-12-15T00:57:10.618Z,-0.50
2018-12-15T00:59:39.786Z,-0.50
2018-12-15T01:02:08.096Z,-0.50
2018-12-15T01:04:36.702Z,-0.50
2018-12-15T01:07:05.175Z,-0.50
2018-12-15T01:09:33.303Z,-0.50
2018-12-15T01:12:02.371Z,-0.50
2018-12-15T01:14:32.255Z,-0.50
2018-12-15T01:17:01.469Z,-0.50
2018-12-15T01:19:30.106Z,-0.50
2018-12-15T01:21:58.607Z,0.60
2018-12-15T01:24:27.531Z,-0.50
2018-12-15T01:26:55.974Z,-0.50
2018-12-15T01:29:24.905Z,-0.50
2018-12-15T01:31:54.104Z,-0.50
2018-12-15T01:34:23.273Z,-0.50
2018-12-15T01:36:52.268Z,-0.50
2018-12-15T01:39:21.136Z,-0.40
2018-12-15T01:41:50.169Z,-0.40
2018-12-15T01:44:18.978Z,-0.50
2018-12-15T01:46:47.884Z,-0.50
2018-12-15T01:49:16.485Z,-0.50
2018-12-15T01:51:45.327Z,-0.50
2018-12-15T01:54:13.917Z,-0.50
2018-12-15T01:56:42.503Z,-0.50
2018-12-15T01:59:10.763Z,-0.50
2018-12-15T02:01:39.166Z,-0.50
2018-12-15T02:04:07.927Z,-0.50
2018-12-15T02:06:36.583Z,-0.50
2018-12-15T02:09:05.862Z,-0.50
2018-12-15T02:11:34.359Z,-0.50
2018-12-15T02:14:02.549Z,-0.50
2018-12-15T02:16:30.743Z,-0.50
2018-12-15T02:18:58.911Z,-0.50
2018-12-15T02:21:27.825Z,-0.50
2018-12-15T02:23:57.095Z,-0.50
2018-12-15T02:26:26.126Z,-0.50
2018-12-15T02:28:55.390Z,-0.50
2018-12-15T02:31:24.165Z,-0.50
2018-12-15T02:33:53.218Z,-0.50
2018-12-15T02:36:21.874Z,-0.60
2018-12-15T02:38:50.789Z,-0.50
2018-12-15T02:41:19.451Z,-0.60
2018-12-15T02:43:48.218Z,-0.60
2018-12-15T02:46:17.168Z,-0.50
2018-12-15T02:48:46.310Z,-0.50
2018-12-15T02:51:15.334Z,-0.50
2018-12-15T02:53:44.280Z,-0.60
2018-12-15T02:56:12.886Z,-0.60
2018-12-15T02:58:41.538Z,-0.60
2018-12-15T03:01:16.131Z,-0.60
2018-12-15T03:03:45.810Z,-0.60
2018-12-15T03:06:14.195Z,-0.60
2018-12-15T03:08:42.425Z,-0.60
2018-12-15T03:11:10.542Z,-0.60
2018-12-15T03:13:38.836Z,-0.60
2018-12-15T03:16:07.262Z,-0.60
2018-12-15T03:18:35.457Z,-0.60
2018-12-15T03:21:04.084Z,-0.60
2018-12-15T03:23:32.191Z,-0.60
2018-12-15T03:26:00.525Z,-0.60
2018-12-15T03:28:28.621Z,-0.60
2018-12-15T03:30:56.755Z,-0.60
2018-12-15T03:33:24.984Z,-0.50
2018-12-15T03:35:53.372Z,-0.60
2018-12-15T03:38:21.576Z,-0.60
2018-12-15T03:40:49.660Z,-0.60
2018-12-15T03:43:17.707Z,-0.60
2018-12-15T03:45:45.961Z,-0.60
2018-12-15T03:48:14.061Z,-0.60
2018-12-15T03:50:42.653Z,-0.60
2018-12-15T03:53:11.497Z,-0.60
2018-12-15T03:55:40.003Z,-0.60
2018-12-15T03:58:08.884Z,-0.60
2018-12-15T04:00:37.816Z,-0.50
2018-12-15T04:03:07.006Z,-0.50
2018-12-15T04:05:35.902Z,-0.50
2018-12-15T04:08:04.611Z,-0.50
2018-12-15T04:10:33.034Z,-0.60
2018-12-15T04:13:01.532Z,-0.60
2018-12-15T04:15:30.829Z,-0.60
2018-12-15T04:18:03.750Z,-0.60
2018-12-15T04:20:29.440Z,-0.60
2018-12-15T04:22:57.651Z,-0.60
2018-12-15T04:25:25.744Z,-0.70
2018-12-15T04:27:53.797Z,-0.60
2018-12-15T04:30:21.887Z,-0.60
2018-12-15T04:32:49.964Z,-0.60
2018-12-15T04:35:18.325Z,-0.60
2018-12-15T04:37:46.575Z,-0.60
2018-12-15T04:40:15.021Z,-0.60
2018-12-15T04:42:43.254Z,-0.60
2018-12-15T04:45:11.356Z,-0.60
2018-12-15T04:47:39.514Z,-0.60
2018-12-15T04:50:07.748Z,-0.60
2018-12-15T04:52:35.869Z,-0.60
2018-12-15T04:55:05.200Z,-0.60
2018-12-15T04:57:34.161Z,-0.60
2018-12-15T05:00:04.069Z,-0.60
2018-12-15T05:02:33.485Z,-0.60
2018-12-15T05:05:05.231Z,-0.60
2018-12-15T05:07:35.583Z,-0.60
2018-12-15T05:10:06.603Z,-0.70
2018-12-15T05:12:35.485Z,-0.60
2018-12-15T05:15:05.166Z,-0.70
2018-12-15T05:17:34.049Z,-0.70
2018-12-15T05:20:03.131Z,-0.60
2018-12-15T05:22:32.148Z,-0.60
2018-12-15T05:25:00.692Z,-0.60
2018-12-15T05:27:29.392Z,-0.60
2018-12-15T05:29:58.134Z,-0.70
2018-12-15T05:32:26.527Z,-0.60
2018-12-15T05:34:55.754Z,-0.60
2018-12-15T05:37:24.946Z,-0.70
2018-12-15T05:39:53.837Z,-0.60
2018-12-15T05:42:22.778Z,-0.70
2018-12-15T05:44:52.089Z,-0.60
2018-12-15T05:47:20.681Z,-0.60
2018-12-15T05:49:49.614Z,-0.60
2018-12-15T05:52:18.715Z,-0.60
2018-12-15T05:54:47.105Z,-0.60
2018-12-15T05:57:15.868Z,-0.60
2018-12-15T05:59:44.552Z,-0.60
2018-12-15T06:02:15.191Z,-0.60
2018-12-15T06:04:44.003Z,-0.60
2018-12-15T06:07:13.426Z,-0.60
2018-12-15T06:09:42.679Z,-0.50
2018-12-15T06:12:11.628Z,-0.50
2018-12-15T06:14:40.664Z,-0.60
2018-12-15T06:17:10.243Z,-0.60
2018-12-15T06:19:38.453Z,-0.50
2018-12-15T06:22:07.182Z,-0.50
2018-12-15T06:24:35.252Z,-0.50
2018-12-15T06:27:03.549Z,-0.50
2018-12-15T06:29:31.757Z,-0.60
2018-12-15T06:32:00.014Z,-0.60
2018-12-15T06:34:28.701Z,-0.60
2018-12-15T06:36:56.813Z,-0.60
2018-12-15T06:39:25.125Z,-0.60
2018-12-15T06:41:54.021Z,-0.50
2018-12-15T06:44:22.528Z,-0.50
2018-12-15T06:46:51.578Z,-0.50
2018-12-15T06:49:21.097Z,-0.50
2018-12-15T06:51:49.361Z,-0.50
2018-12-15T06:54:19.235Z,-0.50
2018-12-15T06:56:47.564Z,-0.60
2018-12-15T06:59:16.412Z,-0.60
2018-12-15T07:01:45.286Z,-0.60
2018-12-15T07:04:13.849Z,-0.50
2018-12-15T07:06:42.390Z,-0.60
2018-12-15T07:09:20.609Z,-0.60
2018-12-15T07:11:49.971Z,-0.60
2018-12-15T07:14:18.457Z,-0.60
2018-12-15T07:16:47.202Z,-0.60
2018-12-15T07:19:15.831Z,-0.60
2018-12-15T07:21:44.659Z,-0.60
2018-12-15T07:24:14.073Z,-0.60
2018-12-15T07:26:42.956Z,-0.50
2018-12-15T07:29:11.253Z,-0.60
2018-12-15T07:31:39.866Z,-0.50
2018-12-15T07:34:08.999Z,-0.50
2018-12-15T07:36:37.802Z,-0.50
2018-12-15T07:39:07.812Z,-0.50
2018-12-15T07:41:36.424Z,-0.50
2018-12-15T07:44:05.084Z,-0.50
2018-12-15T07:46:33.894Z,-0.50
2018-12-15T07:49:02.461Z,-0.40
2018-12-15T07:51:31.253Z,-0.50
2018-12-15T07:53:59.777Z,-0.50
2018-12-15T07:56:29.123Z,-0.40
2018-12-15T07:58:58.113Z,-0.40
2018-12-15T08:01:27.166Z,-0.40
2018-12-15T08:03:56.767Z,-0.40
2018-12-15T08:06:25.770Z,-0.30
2018-12-15T08:08:54.468Z,-0.30
2018-12-15T08:11:28.993Z,-0.30
2018-12-15T08:14:02.887Z,-0.30
2018-12-15T08:16:31.992Z,-0.30
2018-12-15T08:19:00.767Z,-0.20
2018-12-15T08:21:29.478Z,-0.20
2018-12-15T08:23:58.322Z,-0.20
2018-12-15T08:26:26.876Z,-0.20
2018-12-15T08:28:56.469Z,-0.20
2018-12-15T08:31:25.895Z,-0.20
2018-12-15T08:33:54.655Z,-0.10
2018-12-15T08:36:23.361Z,-0.10
2018-12-15T08:38:51.773Z,-0.10
2018-12-15T08:41:20.507Z,-0.10
2018-12-15T08:43:49.424Z,-0.10
2018-12-15T08:46:18.707Z,0.00
2018-12-15T08:48:47.143Z,-0.10
2018-12-15T08:51:16.097Z,-0.10
2018-12-15T08:53:44.601Z,0.00
2018-12-15T08:56:13.504Z,0.00
2018-12-15T08:58:41.789Z,-0.10
2018-12-15T09:01:09.886Z,0.00
2018-12-15T09:03:38.246Z,0.00
2018-12-15T09:06:06.478Z,0.00
2018-12-15T09:08:34.805Z,0.00
2018-12-15T09:11:03.088Z,0.00
2018-12-15T09:13:31.646Z,0.00
2018-12-15T09:15:59.884Z,0.00
2018-12-15T09:18:28.379Z,0.00
2018-12-15T09:20:56.498Z,0.10
2018-12-15T09:23:24.843Z,0.10
2018-12-15T09:25:53.347Z,0.10
2018-12-15T09:28:21.687Z,0.20
2018-12-15T09:30:49.779Z,0.20
2018-12-15T09:33:19.251Z,0.20
2018-12-15T09:35:48.609Z,0.20
2018-12-15T09:38:17.099Z,0.20
2018-12-15T09:40:46.012Z,0.30
2018-12-15T09:43:15.146Z,0.30
2018-12-15T09:45:43.750Z,0.30
2018-12-15T09:48:29.219Z,0.20
2018-12-15T09:50:59.769Z,0.20
2018-12-15T09:53:29.978Z,0.20
2018-12-15T09:56:00.883Z,0.30
2018-12-15T09:58:29.475Z,0.30
2018-12-15T10:00:58.561Z,0.30
2018-12-15T10:03:27.213Z,0.30
2018-12-15T10:05:56.736Z,0.30
2018-12-15T10:08:25.905Z,0.40
2018-12-15T10:10:59.528Z,0.40
2018-12-15T10:13:28.186Z,0.40
2018-12-15T10:15:56.706Z,0.40
2018-12-15T10:18:25.382Z,0.40
2018-12-15T10:20:54.268Z,0.40
2018-12-15T10:23:23.028Z,0.30
2018-12-15T10:25:51.718Z,0.40
2018-12-15T10:28:21.163Z,0.40
2018-12-15T10:30:55.558Z,0.40
2018-12-15T10:33:23.876Z,0.40
2018-12-15T10:35:53.127Z,0.40
2018-12-15T10:38:23.136Z,0.40
2018-12-15T10:40:51.839Z,0.40
2018-12-15T10:43:20.893Z,0.40
2018-12-15T10:45:49.460Z,0.40
2018-12-15T10:48:18.991Z,0.40
2018-12-15T10:50:48.895Z,0.50
2018-12-15T10:53:18.145Z,0.40
2018-12-15T10:55:46.913Z,0.40
2018-12-15T10:58:15.554Z,0.40
2018-12-15T11:00:49.991Z,0.30
2018-12-15T11:03:18.613Z,0.40
2018-12-15T11:05:48.250Z,0.40
2018-12-15T11:08:17.096Z,0.40
2018-12-15T11:10:45.939Z,0.40
2018-12-15T11:13:14.518Z,0.40
2018-12-15T11:15:43.357Z,0.50
2018-12-15T11:18:11.511Z,0.50
2018-12-15T11:20:40.755Z,0.50
2018-12-15T11:23:09.511Z,0.50
2018-12-15T11:25:38.701Z,0.50
2018-12-15T11:28:07.680Z,0.40
2018-12-15T11:30:36.985Z,0.40
2018-12-15T11:33:05.524Z,0.50
2018-12-15T11:35:34.506Z,0.50
2018-12-15T11:38:03.490Z,0.50
2018-12-15T11:40:32.435Z,0.50
2018-12-15T11:43:01.253Z,0.50
2018-12-15T11:45:30.134Z,0.50
2018-12-15T11:47:59.238Z,0.50
2018-12-15T11:50:28.205Z,0.50
2018-12-15T11:52:56.996Z,0.40
2018-12-15T11:55:25.782Z,0.50
2018-12-15T11:57:54.358Z,0.50
2018-12-15T12:00:23.178Z,0.40
2018-12-15T12:02:51.451Z,0.50
2018-12-15T12:05:19.887Z,0.50
2018-12-15T12:07:48.425Z,0.50
2018-12-15T12:10:21.976Z,0.40
2018-12-15T12:12:51.813Z,0.50
2018-12-15T12:15:20.995Z,0.50
2018-12-15T12:17:49.347Z,0.50
2018-12-15T12:20:18.052Z,0.50
2018-12-15T12:22:46.143Z,0.50
2018-12-15T12:25:14.385Z,0.50
2018-12-15T12:27:42.706Z,0.40
2018-12-15T12:30:11.663Z,0.50
2018-12-15T12:32:40.415Z,0.50
2018-12-15T12:35:09.231Z,0.40
2018-12-15T12:37:37.652Z,0.40
2018-12-15T12:40:06.659Z,0.40
2018-12-15T12:42:36.418Z,0.40
2018-12-15T12:45:05.653Z,0.50
2018-12-15T12:47:34.462Z,0.50
2018-12-15T12:50:05.427Z,0.50
2018-12-15T12:52:33.812Z,0.40
2018-12-15T12:55:02.809Z,0.40
2018-12-15T12:57:31.406Z,0.50
2018-12-15T12:59:59.520Z,0.50
2018-12-15T13:02:28.361Z,0.50
2018-12-15T13:04:56.867Z,0.40
2018-12-15T13:07:25.709Z,0.40
2018-12-15T13:09:55.394Z,0.50
2018-12-15T13:12:23.838Z,0.40
2018-12-15T13:14:52.635Z,0.50
2018-12-15T13:17:21.683Z,0.50
2018-12-15T13:19:50.685Z,0.40
2018-12-15T13:22:19.474Z,0.40
2018-12-15T13:25:58.604Z,0.50
2018-12-15T13:28:32.463Z,0.50
2018-12-15T13:31:01.264Z,0.50
2018-12-15T13:33:35.580Z,0.60
2018-12-15T13:36:16.149Z,0.50
2018-12-15T13:38:44.616Z,0.60
2018-12-15T13:41:13.404Z,0.60
2018-12-15T13:43:42.770Z,0.60
2018-12-15T13:46:11.563Z,0.60
2018-12-15T13:48:40.735Z,0.60
2018-12-15T13:51:09.946Z,0.60
2018-12-15T13:53:38.481Z,0.50
2018-12-15T13:56:07.558Z,0.50
2018-12-15T13:58:41.208Z,0.40
2018-12-15T14:01:09.705Z,-0.40
2018-12-15T14:03:38.444Z,0.40
2018-12-15T14:06:08.021Z,0.40
2018-12-15T14:08:36.806Z,0.40
2018-12-15T14:11:05.530Z,0.50
2018-12-15T14:13:34.506Z,0.40
2018-12-15T14:16:03.140Z,0.40
2018-12-15T14:18:31.571Z,0.40
2018-12-15T14:21:00.172Z,0.40
2018-12-15T14:23:28.991Z,0.40
2018-12-15T14:25:58.050Z,0.40
2018-12-15T14:28:26.914Z,0.40
2018-12-15T14:30:55.924Z,0.40
2018-12-15T14:33:24.274Z,0.40
2018-12-15T14:35:52.880Z,0.40
2018-12-15T14:38:21.610Z,0.40
2018-12-15T14:40:50.143Z,0.30
2018-12-15T14:43:19.193Z,0.30
2018-12-15T14:45:47.857Z,0.30
2018-12-15T14:48:16.484Z,0.30
2018-12-15T14:50:45.229Z,0.30
2018-12-15T14:53:13.836Z,0.30
2018-12-15T14:55:42.587Z,0.30
2018-12-15T14:58:11.409Z,0.20
2018-12-15T15:00:39.982Z,0.20
2018-12-15T15:03:09.570Z,0.20
2018-12-15T15:05:38.535Z,0.10
2018-12-15T15:08:07.081Z,0.10
2018-12-15T15:10:35.611Z,0.10
2018-12-15T15:13:04.524Z,0.10
2018-12-15T15:15:33.355Z,0.10
2018-12-15T15:18:02.270Z,0.10
2018-12-15T15:20:30.931Z,0.10
2018-12-15T15:22:59.974Z,0.20
2018-12-15T15:25:28.856Z,0.70
2018-12-15T15:27:57.823Z,0.20
2018-12-15T15:30:26.655Z,0.20
2018-12-15T15:32:54.917Z,0.20
2018-12-15T15:35:23.444Z,0.10
2018-12-15T15:37:51.813Z,0.10
2018-12-15T15:40:20.181Z,0.10
2018-12-15T15:42:48.897Z,0.10
2018-12-15T15:45:17.431Z,0.10
2018-12-15T15:47:46.628Z,0.10
2018-12-15T15:50:15.201Z,0.10
2018-12-15T15:52:43.920Z,0.10
2018-12-15T15:55:12.650Z,0.10
2018-12-15T15:57:41.161Z,0.10
2018-12-15T16:00:11.054Z,0.10
2018-12-15T16:02:39.969Z,0.10
2018-12-15T16:05:08.529Z,0.10
2018-12-15T16:07:36.681Z,0.10
2018-12-15T16:10:08.835Z,0.10
2018-12-15T16:12:36.925Z,0.10
2018-12-15T16:15:06.858Z,0.10
2018-12-15T16:17:35.256Z,0.10
2018-12-15T16:20:04.599Z,0.10
2018-12-15T16:22:33.443Z,0.10
2018-12-15T16:25:01.953Z,0.10
2018-12-15T16:27:30.022Z,0.20
2018-12-15T16:29:58.380Z,0.10
2018-12-15T16:32:26.898Z,0.10
2018-12-15T16:34:55.139Z,0.10
2018-12-15T16:37:23.413Z,0.10
2018-12-15T16:39:51.469Z,0.10
2018-12-15T16:42:19.677Z,0.10
2018-12-15T16:44:47.894Z,0.00
2018-12-15T16:47:16.152Z,0.00
2018-12-15T16:49:44.298Z,0.10
2018-12-15T16:52:12.656Z,0.00
2018-12-15T16:54:41.127Z,0.00
2018-12-15T16:57:09.421Z,0.00
2018-12-15T16:59:38.879Z,0.80
2018-12-15T17:02:10.215Z,0.00
2018-12-15T17:04:39.289Z,0.00
2018-12-15T17:07:08.337Z,0.00
2018-12-15T17:09:36.962Z,0.00
2018-12-15T17:12:05.682Z,-0.10
2018-12-15T17:14:34.294Z,0.70
2018-12-15T17:17:02.790Z,0.00
2018-12-15T17:19:31.841Z,-0.10
2018-12-15T17:22:00.964Z,-0.10
2018-12-15T17:24:29.987Z,-0.10
2018-12-15T17:26:59.758Z,-0.10
2018-12-15T17:29:28.286Z,-0.10
2018-12-15T17:31:56.925Z,-0.10
2018-12-15T17:34:25.546Z,-0.10
2018-12-15T17:36:54.668Z,0.00
2018-12-15T17:39:23.739Z,0.00
2018-12-15T17:41:52.343Z,-0.10
2018-12-15T17:44:20.832Z,-0.10
2018-12-15T17:46:49.543Z,-0.10
2018-12-15T17:49:18.522Z,-0.10
2018-12-15T17:51:47.097Z,-0.10
2018-12-15T17:54:16.693Z,-0.10
2018-12-15T17:56:46.086Z,-0.10
2018-12-15T17:59:14.723Z,-0.10
2018-12-15T18:01:43.057Z,-0.10
2018-12-15T18:04:11.821Z,-0.10
2018-12-15T18:06:41.211Z,-0.10
2018-12-15T18:09:10.322Z,-0.10
2018-12-15T18:11:39.291Z,-0.10
2018-12-15T18:14:08.363Z,-0.10
2018-12-15T18:16:36.619Z,-0.10
2018-12-15T18:19:05.256Z,-0.20
2018-12-15T18:21:34.782Z,-0.20
2018-12-15T18:24:03.287Z,-0.20
2018-12-15T18:26:31.792Z,-0.20
2018-12-15T18:28:59.874Z,-0.30
2018-12-15T18:31:28.256Z,-0.30
2018-12-15T18:33:56.545Z,-0.40
2018-12-15T18:36:25.070Z,-0.50
2018-12-15T18:38:56.055Z,-0.60
2018-12-15T18:41:24.519Z,-0.60
2018-12-15T18:43:54.145Z,-0.70
2018-12-15T18:46:22.207Z,-0.90
2018-12-15T18:48:50.501Z,-0.90
2018-12-15T18:51:18.775Z,-1.00
2018-12-15T18:53:47.686Z,-1.00
2018-12-15T18:56:16.492Z,-1.20
2018-12-15T18:58:45.602Z,-1.10
2018-12-15T19:01:13.972Z,-1.10
2018-12-15T19:03:42.839Z,-1.00
2018-12-15T19:06:12.006Z,-1.00
2018-12-15T19:08:40.575Z,-1.10
2018-12-15T19:11:09.479Z,-1.10
2018-12-15T19:13:37.947Z,-1.10
2018-12-15T19:16:06.522Z,-1.20
2018-12-15T19:18:36.269Z,-1.20
2018-12-15T19:21:05.044Z,-1.20
2018-12-15T19:23:34.447Z,-1.10
2018-12-15T19:26:08.097Z,-1.10
2018-12-15T19:28:36.830Z,-1.10
2018-12-15T19:31:06.018Z,-1.10
2018-12-15T19:33:34.858Z,-1.20
2018-12-15T19:36:03.883Z,-1.30
2018-12-15T19:38:32.877Z,-1.30
2018-12-15T19:41:01.598Z,-1.40
2018-12-15T19:43:30.803Z,-1.50
2018-12-15T19:45:59.810Z,-1.50
2018-12-15T19:48:28.716Z,-1.60
2018-12-15T19:50:57.575Z,-1.70
2018-12-15T19:53:26.396Z,-1.80
2018-12-15T19:55:55.498Z,-1.90
2018-12-15T19:58:24.626Z,-1.90
2018-12-15T20:00:53.913Z,-2.00
2018-12-15T20:03:22.836Z,-2.10
2018-12-15T20:05:51.953Z,-2.20
2018-12-15T20:08:20.299Z,-2.20
2018-12-15T20:10:48.485Z,-2.30
2018-12-15T20:13:16.727Z,-2.40
2018-12-15T20:15:44.942Z,-2.50
2018-12-15T20:18:13.011Z,-2.60
2018-12-15T20:20:41.512Z,-2.50
2018-12-15T20:23:09.637Z,-2.40
2018-12-15T20:25:38.098Z,-2.40
2018-12-15T20:28:06.438Z,-2.40
2018-12-15T20:30:34.754Z,-2.50
2018-12-15T20:33:02.991Z,-2.50
2018-12-15T20:35:31.362Z,-2.50
2018-12-15T20:37:59.535Z,-2.60
2018-12-15T20:40:27.644Z,-2.70
2018-12-15T20:42:56.146Z,-2.70
2018-12-15T20:45:34.905Z,-2.60
2018-12-15T20:48:06.694Z,-2.70
2018-12-15T20:50:35.027Z,-2.80
2018-12-15T20:53:03.241Z,-2.80
2018-12-15T20:55:31.566Z,-2.90
2018-12-15T20:58:00.244Z,-2.90
2018-12-15T21:00:28.888Z,-3.00
2018-12-15T21:02:57.165Z,-3.10
2018-12-15T21:05:25.387Z,-3.10
2018-12-15T21:07:53.499Z,-3.10
2018-12-15T21:10:22.214Z,-3.30
2018-12-15T21:12:50.560Z,-3.30
2018-12-15T21:15:22.234Z,-3.20
2018-12-15T21:17:50.683Z,-3.20
2018-12-15T21:20:19.038Z,-3.20
2018-12-15T21:22:47.273Z,-3.20
2018-12-15T21:25:15.702Z,-3.20
2018-12-15T21:27:44.197Z,-3.20
2018-12-15T21:30:12.548Z,-3.20
2018-12-15T21:32:41.797Z,-3.30
2018-12-15T21:35:10.702Z,-3.20
2018-12-15T21:37:39.304Z,-3.20
2018-12-15T21:40:08.019Z,-3.20
2018-12-15T21:42:36.463Z,-3.30
2018-12-15T21:45:05.686Z,-3.30
2018-12-15T21:47:34.207Z,-3.30
2018-12-15T21:50:03.094Z,-3.30
2018-12-15T21:52:31.450Z,-3.30
2018-12-15T21:54:59.812Z,-3.30
2018-12-15T21:57:28.431Z,-3.30
2018-12-15T21:59:56.792Z,-3.40
2018-12-15T22:02:25.895Z,-3.40
2018-12-15T22:04:54.128Z,-3.40
2018-12-15T22:07:22.314Z,-3.50
2018-12-15T22:09:51.492Z,-3.50
2018-12-15T22:12:19.853Z,-3.70
2018-12-15T22:14:48.540Z,-3.70
2018-12-15T22:17:17.218Z,-3.60
2018-12-15T22:19:45.448Z,-3.40
2018-12-15T22:22:14.072Z,-3.50
2018-12-15T22:24:42.586Z,-3.50
2018-12-15T22:27:11.382Z,-3.40
2018-12-15T22:29:40.090Z,-3.30
2018-12-15T22:32:08.145Z,-3.20
2018-12-15T22:34:36.229Z,-3.10
2018-12-15T22:37:04.594Z,-3.00
2018-12-15T22:39:33.172Z,-3.00
2018-12-15T22:42:01.734Z,-2.90
2018-12-15T22:44:29.841Z,-2.80
2018-12-15T22:46:58.135Z,-2.80
2018-12-15T22:49:26.678Z,-2.70
2018-12-15T22:51:54.809Z,-2.70
2018-12-15T22:54:23.534Z,-2.60
2018-12-15T22:56:52.095Z,-2.60
2018-12-15T22:59:20.325Z,-2.50
2018-12-15T23:01:48.598Z,-2.50
2018-12-15T23:04:16.950Z,-2.50
2018-12-15T23:06:45.283Z,-2.50
2018-12-15T23:09:13.476Z,-2.50
2018-12-15T23:11:41.769Z,-2.50
2018-12-15T23:14:09.865Z,-2.40
2018-12-15T23:16:39.320Z,-2.50
2018-12-15T23:19:07.683Z,-2.50
2018-12-15T23:21:36.223Z,-2.50
2018-12-15T23:24:04.706Z,-2.50
2018-12-15T23:26:33.032Z,-2.50
2018-12-15T23:29:01.132Z,-2.50
2018-12-15T23:31:29.495Z,-2.50
2018-12-15T23:33:57.897Z,-2.40
2018-12-15T23:36:26.205Z,-2.40
2018-12-15T23:38:54.342Z,-2.30
2018-12-15T23:41:23.026Z,-2.30
2018-12-15T23:43:51.474Z,-2.30
2018-12-15T23:46:20.737Z,-2.30
2018-12-15T23:48:49.129Z,-2.40
2018-12-15T23:51:18.244Z,-2.30
2018-12-15T23:53:46.454Z,-2.40
2018-12-15T23:56:14.702Z,-2.40
2018-12-15T23:58:43.046Z,-2.40
